sensor_id;sensor_type;location;lat;lon;timestamp;temperature;humidity
21612;DHT22;47005;52.292;13.452;2022-11-20T00:00:35;2.70;99.90
21612;DHT22;47005;52.292;13.452;2022-11-20T00:03:01;2.70;99.90
21612;DHT22;47005;52.292;13.452;2022-11-20T00:05:26;2.70;99.90
21612;DHT22;47005;52.292;13.452;2022-11-20T00:07:52;2.80;99.90
21612;DHT22;47005;52.292;13.452;2022-11-20T00:10:18;2.80;99.90
21612;DHT22;47005;52.292;13.452;2022-11-20T00:12:43;2.80;99.90
21612;DHT22;47005;52.292;13.452;2022-11-20T00:15:09;2.70;99.90
21612;DHT22;47005;52.292;13.452;2022-11-20T00:17:35;2.70;99.90
21612;DHT22;47005;52.292;13.452;2022-11-20T00:20:01;2.70;99.90
21612;DHT22;47005;52.292;13.452;2022-11-20T00:22:26;2.70;99.90
21612;DHT22;47005;52.292;13.452;2022-11-20T00:24:52;2.80;99.90
21612;DHT22;47005;52.292;13.452;2022-11-20T00:27:17;2.70;99.90
21612;DHT22;47005;52.292;13.452;2022-11-20T00:29:43;2.70;99.90
21612;DHT22;47005;52.292;13.452;2022-11-20T00:32:08;2.70;99.90
21612;DHT22;47005;52.292;13.452;2022-11-20T00:34:34;2.70;99.90
21612;DHT22;47005;52.292;13.452;2022-11-20T00:37:00;2.70;99.90
21612;DHT22;47005;52.292;13.452;2022-11-20T00:39:25;2.70;99.90
21612;DHT22;47005;52.292;13.452;2022-11-20T00:41:51;2.70;99.90
21612;DHT22;47005;52.292;13.452;2022-11-20T00:44:16;2.70;99.90
21612;DHT22;47005;52.292;13.452;2022-11-20T00:46:42;2.70;99.90
21612;DHT22;47005;52.292;13.452;2022-11-20T00:49:08;2.70;99.90
21612;DHT22;47005;52.292;13.452;2022-11-20T00:51:33;2.70;99.90
21612;DHT22;47005;52.292;13.452;2022-11-20T00:53:59;2.70;99.90
21612;DHT22;47005;52.292;13.452;2022-11-20T00:56:25;2.70;99.90
21612;DHT22;47005;52.292;13.452;2022-11-20T00:58:51;2.70;99.90
21612;DHT22;47005;52.292;13.452;2022-11-20T01:01:23;2.70;99.90
21612;DHT22;47005;52.292;13.452;2022-11-20T01:03:56;2.70;99.90
21612;DHT22;47005;52.292;13.452;2022-11-20T01:06:23;2.70;99.90
21612;DHT22;47005;52.292;13.452;2022-11-20T01:08:50;2.70;99.90
21612;DHT22;47005;52.292;13.452;2022-11-20T01:11:21;2.70;99.90
21612;DHT22;47005;52.292;13.452;2022-11-20T01:13:48;2.60;99.90
21612;DHT22;47005;52.292;13.452;2022-11-20T01:18:47;2.70;99.90
21612;DHT22;47005;52.292;13.452;2022-11-20T01:21:24;2.70;99.90
21612;DHT22;47005;52.292;13.452;2022-11-20T01:23:51;2.70;99.90
21612;DHT22;47005;52.292;13.452;2022-11-20T01:26:20;2.70;99.90
21612;DHT22;47005;52.292;13.452;2022-11-20T01:28:46;2.70;99.90
21612;DHT22;47005;52.292;13.452;2022-11-20T01:31:22;2.70;99.90
21612;DHT22;47005;52.292;13.452;2022-11-20T01:33:51;2.70;99.90
21612;DHT22;47005;52.292;13.452;2022-11-20T01:36:17;2.60;99.90
21612;DHT22;47005;52.292;13.452;2022-11-20T01:38:43;2.70;99.90
21612;DHT22;47005;52.292;13.452;2022-11-20T01:41:11;2.60;99.90
21612;DHT22;47005;52.292;13.452;2022-11-20T01:43:57;2.70;99.90
21612;DHT22;47005;52.292;13.452;2022-11-20T01:46:23;2.60;99.90
21612;DHT22;47005;52.292;13.452;2022-11-20T01:49:11;2.60;99.90
21612;DHT22;47005;52.292;13.452;2022-11-20T01:51:50;2.60;99.90
21612;DHT22;47005;52.292;13.452;2022-11-20T01:54:23;2.60;99.90
21612;DHT22;47005;52.292;13.452;2022-11-20T01:56:52;2.60;99.90
21612;DHT22;47005;52.292;13.452;2022-11-20T01:59:20;2.60;99.90
21612;DHT22;47005;52.292;13.452;2022-11-20T02:01:47;2.50;99.90
21612;DHT22;47005;52.292;13.452;2022-11-20T02:04:13;2.60;99.90
21612;DHT22;47005;52.292;13.452;2022-11-20T02:06:47;2.60;99.90
21612;DHT22;47005;52.292;13.452;2022-11-20T02:09:14;2.60;99.90
21612;DHT22;47005;52.292;13.452;2022-11-20T02:11:40;2.50;99.90
21612;DHT22;47005;52.292;13.452;2022-11-20T02:14:06;2.50;99.90
21612;DHT22;47005;52.292;13.452;2022-11-20T02:16:37;2.50;99.90
21612;DHT22;47005;52.292;13.452;2022-11-20T02:19:16;2.50;99.90
21612;DHT22;47005;52.292;13.452;2022-11-20T02:22:10;2.50;99.90
21612;DHT22;47005;52.292;13.452;2022-11-20T02:24:37;2.50;99.90
21612;DHT22;47005;52.292;13.452;2022-11-20T02:27:08;2.40;99.90
21612;DHT22;47005;52.292;13.452;2022-11-20T02:29:39;2.50;99.90
21612;DHT22;47005;52.292;13.452;2022-11-20T02:32:06;2.40;99.90
21612;DHT22;47005;52.292;13.452;2022-11-20T02:34:32;2.40;99.90
21612;DHT22;47005;52.292;13.452;2022-11-20T02:36:59;2.40;99.90
21612;DHT22;47005;52.292;13.452;2022-11-20T02:39:26;2.40;99.90
21612;DHT22;47005;52.292;13.452;2022-11-20T02:41:56;2.40;99.90
21612;DHT22;47005;52.292;13.452;2022-11-20T02:44:22;2.40;99.90
21612;DHT22;47005;52.292;13.452;2022-11-20T02:46:48;2.40;99.90
21612;DHT22;47005;52.292;13.452;2022-11-20T02:49:13;2.40;99.90
21612;DHT22;47005;52.292;13.452;2022-11-20T02:51:39;2.40;99.90
21612;DHT22;47005;52.292;13.452;2022-11-20T02:54:04;2.30;99.90
21612;DHT22;47005;52.292;13.452;2022-11-20T02:56:31;2.30;99.90
21612;DHT22;47005;52.292;13.452;2022-11-20T02:58:56;2.40;99.90
21612;DHT22;47005;52.292;13.452;2022-11-20T03:01:22;2.30;99.90
21612;DHT22;47005;52.292;13.452;2022-11-20T03:03:48;2.30;99.90
21612;DHT22;47005;52.292;13.452;2022-11-20T03:06:15;2.40;99.90
21612;DHT22;47005;52.292;13.452;2022-11-20T03:08:42;2.30;99.90
21612;DHT22;47005;52.292;13.452;2022-11-20T03:11:08;2.30;99.90
21612;DHT22;47005;52.292;13.452;2022-11-20T03:13:34;2.20;99.90
21612;DHT22;47005;52.292;13.452;2022-11-20T03:16:14;2.30;99.90
21612;DHT22;47005;52.292;13.452;2022-11-20T03:18:41;2.30;99.90
21612;DHT22;47005;52.292;13.452;2022-11-20T03:21:07;2.30;99.90
21612;DHT22;47005;52.292;13.452;2022-11-20T03:23:33;2.30;99.90
21612;DHT22;47005;52.292;13.452;2022-11-20T03:28:37;2.30;99.90
21612;DHT22;47005;52.292;13.452;2022-11-20T03:31:12;2.30;99.90
21612;DHT22;47005;52.292;13.452;2022-11-20T03:33:39;2.30;99.90
21612;DHT22;47005;52.292;13.452;2022-11-20T03:36:07;2.30;99.90
21612;DHT22;47005;52.292;13.452;2022-11-20T03:38:34;2.30;99.90
21612;DHT22;47005;52.292;13.452;2022-11-20T03:41:06;2.30;99.90
21612;DHT22;47005;52.292;13.452;2022-11-20T03:43:32;2.30;99.90
21612;DHT22;47005;52.292;13.452;2022-11-20T03:45:59;2.30;99.90
21612;DHT22;47005;52.292;13.452;2022-11-20T03:48:25;2.30;99.90
21612;DHT22;47005;52.292;13.452;2022-11-20T03:50:52;2.30;99.90
21612;DHT22;47005;52.292;13.452;2022-11-20T03:53:19;2.30;99.90
21612;DHT22;47005;52.292;13.452;2022-11-20T03:55:45;2.30;99.90
21612;DHT22;47005;52.292;13.452;2022-11-20T03:58:15;2.30;99.90
21612;DHT22;47005;52.292;13.452;2022-11-20T04:00:41;2.30;99.90
21612;DHT22;47005;52.292;13.452;2022-11-20T04:03:06;2.30;99.90
21612;DHT22;47005;52.292;13.452;2022-11-20T04:05:33;2.30;99.90
21612;DHT22;47005;52.292;13.452;2022-11-20T04:07:59;2.30;99.90
21612;DHT22;47005;52.292;13.452;2022-11-20T04:10:25;2.30;99.90
21612;DHT22;47005;52.292;13.452;2022-11-20T04:12:51;2.40;99.90
21612;DHT22;47005;52.292;13.452;2022-11-20T04:15:16;2.40;99.90
21612;DHT22;47005;52.292;13.452;2022-11-20T04:17:43;2.40;99.90
21612;DHT22;47005;52.292;13.452;2022-11-20T04:20:08;2.30;99.90
21612;DHT22;47005;52.292;13.452;2022-11-20T04:22:34;2.40;99.90
21612;DHT22;47005;52.292;13.452;2022-11-20T04:25:00;2.40;99.90
21612;DHT22;47005;52.292;13.452;2022-11-20T04:27:25;2.40;99.90
21612;DHT22;47005;52.292;13.452;2022-11-20T04:29:51;2.40;99.90
21612;DHT22;47005;52.292;13.452;2022-11-20T04:32:16;2.40;99.90
21612;DHT22;47005;52.292;13.452;2022-11-20T04:34:42;2.40;99.90
21612;DHT22;47005;52.292;13.452;2022-11-20T04:37:08;2.40;99.90
21612;DHT22;47005;52.292;13.452;2022-11-20T04:39:33;2.40;99.90
21612;DHT22;47005;52.292;13.452;2022-11-20T04:41:59;2.40;99.90
21612;DHT22;47005;52.292;13.452;2022-11-20T04:44:43;2.50;99.90
21612;DHT22;47005;52.292;13.452;2022-11-20T04:47:08;2.50;99.90
21612;DHT22;47005;52.292;13.452;2022-11-20T04:49:34;2.50;99.90
21612;DHT22;47005;52.292;13.452;2022-11-20T04:52:00;2.50;99.90
21612;DHT22;47005;52.292;13.452;2022-11-20T04:54:25;2.50;99.90
21612;DHT22;47005;52.292;13.452;2022-11-20T04:56:51;2.50;99.90
21612;DHT22;47005;52.292;13.452;2022-11-20T04:59:16;2.50;99.90
21612;DHT22;47005;52.292;13.452;2022-11-20T05:01:42;2.40;99.90
21612;DHT22;47005;52.292;13.452;2022-11-20T05:04:08;2.50;99.90
21612;DHT22;47005;52.292;13.452;2022-11-20T05:06:33;2.50;99.90
21612;DHT22;47005;52.292;13.452;2022-11-20T05:08:59;2.50;99.90
21612;DHT22;47005;52.292;13.452;2022-11-20T05:11:26;2.50;99.90
21612;DHT22;47005;52.292;13.452;2022-11-20T05:13:54;2.50;99.90
21612;DHT22;47005;52.292;13.452;2022-11-20T05:16:22;2.50;99.90
21612;DHT22;47005;52.292;13.452;2022-11-20T05:18:49;2.50;99.90
21612;DHT22;47005;52.292;13.452;2022-11-20T05:21:15;2.60;99.90
21612;DHT22;47005;52.292;13.452;2022-11-20T05:23:41;2.60;99.90
21612;DHT22;47005;52.292;13.452;2022-11-20T05:26:11;2.60;99.90
21612;DHT22;47005;52.292;13.452;2022-11-20T05:28:38;2.60;99.90
21612;DHT22;47005;52.292;13.452;2022-11-20T05:31:08;2.60;99.90
21612;DHT22;47005;52.292;13.452;2022-11-20T05:33:35;2.60;99.90
21612;DHT22;47005;52.292;13.452;2022-11-20T05:36:02;2.60;99.90
21612;DHT22;47005;52.292;13.452;2022-11-20T05:38:28;2.60;99.90
21612;DHT22;47005;52.292;13.452;2022-11-20T05:40:53;2.60;99.90
21612;DHT22;47005;52.292;13.452;2022-11-20T05:43:19;2.60;99.90
21612;DHT22;47005;52.292;13.452;2022-11-20T05:45:54;2.60;99.90
21612;DHT22;47005;52.292;13.452;2022-11-20T05:48:20;2.50;99.90
21612;DHT22;47005;52.292;13.452;2022-11-20T05:50:47;2.60;99.90
21612;DHT22;47005;52.292;13.452;2022-11-20T05:53:12;2.60;99.90
21612;DHT22;47005;52.292;13.452;2022-11-20T05:55:38;2.60;99.90
21612;DHT22;47005;52.292;13.452;2022-11-20T05:58:04;2.60;99.90
21612;DHT22;47005;52.292;13.452;2022-11-20T06:00:29;2.60;99.90
21612;DHT22;47005;52.292;13.452;2022-11-20T06:02:55;2.50;99.90
21612;DHT22;47005;52.292;13.452;2022-11-20T06:05:20;2.50;99.90
21612;DHT22;47005;52.292;13.452;2022-11-20T06:07:46;2.50;99.90
21612;DHT22;47005;52.292;13.452;2022-11-20T06:10:12;2.50;99.90
21612;DHT22;47005;52.292;13.452;2022-11-20T06:12:37;2.50;99.90
21612;DHT22;47005;52.292;13.452;2022-11-20T06:15:04;2.50;99.90
21612;DHT22;47005;52.292;13.452;2022-11-20T06:17:30;2.50;99.90
21612;DHT22;47005;52.292;13.452;2022-11-20T06:19:55;2.50;99.90
21612;DHT22;47005;52.292;13.452;2022-11-20T06:22:21;2.50;99.90
21612;DHT22;47005;52.292;13.452;2022-11-20T06:24:47;2.50;99.90
21612;DHT22;47005;52.292;13.452;2022-11-20T06:27:13;2.50;99.90
21612;DHT22;47005;52.292;13.452;2022-11-20T06:29:38;2.50;99.90
21612;DHT22;47005;52.292;13.452;2022-11-20T06:32:04;2.50;99.90
21612;DHT22;47005;52.292;13.452;2022-11-20T06:34:29;2.50;99.90
21612;DHT22;47005;52.292;13.452;2022-11-20T06:36:55;2.50;99.90
21612;DHT22;47005;52.292;13.452;2022-11-20T06:39:21;2.50;99.90
21612;DHT22;47005;52.292;13.452;2022-11-20T06:41:46;2.50;99.90
21612;DHT22;47005;52.292;13.452;2022-11-20T06:44:12;2.50;99.90
21612;DHT22;47005;52.292;13.452;2022-11-20T06:46:37;2.60;99.90
21612;DHT22;47005;52.292;13.452;2022-11-20T06:49:03;2.50;99.90
21612;DHT22;47005;52.292;13.452;2022-11-20T06:51:29;2.50;99.90
21612;DHT22;47005;52.292;13.452;2022-11-20T06:53:54;2.40;99.90
21612;DHT22;47005;52.292;13.452;2022-11-20T06:56:20;2.50;99.90
21612;DHT22;47005;52.292;13.452;2022-11-20T06:58:45;2.40;99.90
21612;DHT22;47005;52.292;13.452;2022-11-20T07:01:13;2.50;99.90
21612;DHT22;47005;52.292;13.452;2022-11-20T07:03:40;2.40;99.90
21612;DHT22;47005;52.292;13.452;2022-11-20T07:06:06;2.40;99.90
21612;DHT22;47005;52.292;13.452;2022-11-20T07:08:32;2.40;99.90
21612;DHT22;47005;52.292;13.452;2022-11-20T07:10:59;2.40;99.90
21612;DHT22;47005;52.292;13.452;2022-11-20T07:13:26;2.40;99.90
21612;DHT22;47005;52.292;13.452;2022-11-20T07:15:52;2.30;99.90
21612;DHT22;47005;52.292;13.452;2022-11-20T07:18:18;2.40;99.90
21612;DHT22;47005;52.292;13.452;2022-11-20T07:20:43;2.40;99.90
21612;DHT22;47005;52.292;13.452;2022-11-20T07:23:09;2.40;99.90
21612;DHT22;47005;52.292;13.452;2022-11-20T07:25:34;2.40;99.90
21612;DHT22;47005;52.292;13.452;2022-11-20T07:28:02;2.40;99.90
21612;DHT22;47005;52.292;13.452;2022-11-20T07:30:29;2.40;99.90
21612;DHT22;47005;52.292;13.452;2022-11-20T07:32:56;2.50;99.90
21612;DHT22;47005;52.292;13.452;2022-11-20T07:35:22;2.40;99.90
21612;DHT22;47005;52.292;13.452;2022-11-20T07:37:48;2.40;99.90
21612;DHT22;47005;52.292;13.452;2022-11-20T07:40:18;2.40;99.90
21612;DHT22;47005;52.292;13.452;2022-11-20T07:42:52;2.50;99.90
21612;DHT22;47005;52.292;13.452;2022-11-20T07:45:19;2.50;99.90
21612;DHT22;47005;52.292;13.452;2022-11-20T07:47:45;2.40;99.90
21612;DHT22;47005;52.292;13.452;2022-11-20T07:50:11;2.40;99.90
21612;DHT22;47005;52.292;13.452;2022-11-20T07:52:37;2.40;99.90
21612;DHT22;47005;52.292;13.452;2022-11-20T07:55:03;2.40;99.90
21612;DHT22;47005;52.292;13.452;2022-11-20T07:57:29;2.40;99.90
21612;DHT22;47005;52.292;13.452;2022-11-20T07:59:54;2.40;99.90
21612;DHT22;47005;52.292;13.452;2022-11-20T08:02:20;2.40;99.90
21612;DHT22;47005;52.292;13.452;2022-11-20T08:04:46;2.50;99.90
21612;DHT22;47005;52.292;13.452;2022-11-20T08:07:11;2.50;99.90
21612;DHT22;47005;52.292;13.452;2022-11-20T08:09:37;2.50;99.90
21612;DHT22;47005;52.292;13.452;2022-11-20T08:12:02;2.50;99.90
21612;DHT22;47005;52.292;13.452;2022-11-20T08:14:46;2.50;99.90
21612;DHT22;47005;52.292;13.452;2022-11-20T08:17:12;2.50;99.90
21612;DHT22;47005;52.292;13.452;2022-11-20T08:19:38;2.50;99.90
21612;DHT22;47005;52.292;13.452;2022-11-20T08:22:03;2.50;99.90
21612;DHT22;47005;52.292;13.452;2022-11-20T08:24:29;2.50;99.90
21612;DHT22;47005;52.292;13.452;2022-11-20T08:27:00;2.50;99.90
21612;DHT22;47005;52.292;13.452;2022-11-20T08:29:28;2.50;99.90
21612;DHT22;47005;52.292;13.452;2022-11-20T08:31:54;2.50;99.90
21612;DHT22;47005;52.292;13.452;2022-11-20T08:34:19;2.50;99.90
21612;DHT22;47005;52.292;13.452;2022-11-20T08:36:45;2.50;99.90
21612;DHT22;47005;52.292;13.452;2022-11-20T08:39:11;2.50;99.90
21612;DHT22;47005;52.292;13.452;2022-11-20T08:41:37;2.50;99.90
21612;DHT22;47005;52.292;13.452;2022-11-20T08:44:05;2.40;99.90
21612;DHT22;47005;52.292;13.452;2022-11-20T08:46:37;2.50;99.90
21612;DHT22;47005;52.292;13.452;2022-11-20T08:49:05;2.50;99.90
21612;DHT22;47005;52.292;13.452;2022-11-20T08:51:31;2.50;99.90
21612;DHT22;47005;52.292;13.452;2022-11-20T08:53:57;2.50;99.90
21612;DHT22;47005;52.292;13.452;2022-11-20T08:56:23;2.50;99.90
21612;DHT22;47005;52.292;13.452;2022-11-20T08:58:50;2.50;99.90
21612;DHT22;47005;52.292;13.452;2022-11-20T09:01:20;2.50;99.90
21612;DHT22;47005;52.292;13.452;2022-11-20T09:03:46;2.60;99.90
21612;DHT22;47005;52.292;13.452;2022-11-20T09:06:12;2.60;99.90
21612;DHT22;47005;52.292;13.452;2022-11-20T09:08:38;2.50;99.90
21612;DHT22;47005;52.292;13.452;2022-11-20T09:11:05;2.60;99.90
21612;DHT22;47005;52.292;13.452;2022-11-20T09:13:32;2.60;99.90
21612;DHT22;47005;52.292;13.452;2022-11-20T09:16:08;2.60;99.90
21612;DHT22;47005;52.292;13.452;2022-11-20T09:18:35;2.60;99.90
21612;DHT22;47005;52.292;13.452;2022-11-20T09:21:06;2.60;99.90
21612;DHT22;47005;52.292;13.452;2022-11-20T09:23:34;2.60;99.90
21612;DHT22;47005;52.292;13.452;2022-11-20T09:26:11;2.60;99.90
21612;DHT22;47005;52.292;13.452;2022-11-20T09:28:37;2.60;99.90
21612;DHT22;47005;52.292;13.452;2022-11-20T09:31:13;2.60;99.90
21612;DHT22;47005;52.292;13.452;2022-11-20T09:33:43;2.60;99.90
21612;DHT22;47005;52.292;13.452;2022-11-20T09:36:08;2.60;99.90
21612;DHT22;47005;52.292;13.452;2022-11-20T09:38:34;2.60;99.90
21612;DHT22;47005;52.292;13.452;2022-11-20T09:41:05;2.60;99.90
21612;DHT22;47005;52.292;13.452;2022-11-20T09:54:17;2.70;99.90
21612;DHT22;47005;52.292;13.452;2022-11-20T09:56:52;2.70;99.90
21612;DHT22;47005;52.292;13.452;2022-11-20T10:01:59;2.60;99.90
21612;DHT22;47005;52.292;13.452;2022-11-20T10:04:25;2.70;99.90
21612;DHT22;47005;52.292;13.452;2022-11-20T10:07:15;2.70;99.90
21612;DHT22;47005;52.292;13.452;2022-11-20T10:09:49;2.70;99.90
21612;DHT22;47005;52.292;13.452;2022-11-20T10:26:51;2.90;99.90
21612;DHT22;47005;52.292;13.452;2022-11-20T10:29:22;2.90;99.90
21612;DHT22;47005;52.292;13.452;2022-11-20T10:32:01;2.90;99.90
21612;DHT22;47005;52.292;13.452;2022-11-20T10:37:23;3.00;99.90
21612;DHT22;47005;52.292;13.452;2022-11-20T10:42:43;3.00;99.90
21612;DHT22;47005;52.292;13.452;2022-11-20T10:48:19;3.10;99.90
21612;DHT22;47005;52.292;13.452;2022-11-20T10:56:45;3.10;99.90
21612;DHT22;47005;52.292;13.452;2022-11-20T11:01:55;3.10;99.90
21612;DHT22;47005;52.292;13.452;2022-11-20T11:04:40;3.10;99.90
21612;DHT22;47005;52.292;13.452;2022-11-20T11:07:33;3.20;99.90
21612;DHT22;47005;52.292;13.452;2022-11-20T11:10:00;3.10;99.90
21612;DHT22;47005;52.292;13.452;2022-11-20T11:12:27;3.20;99.90
21612;DHT22;47005;52.292;13.452;2022-11-20T11:14:57;3.20;99.90
21612;DHT22;47005;52.292;13.452;2022-11-20T11:17:24;3.20;99.90
21612;DHT22;47005;52.292;13.452;2022-11-20T11:22:24;3.20;99.90
21612;DHT22;47005;52.292;13.452;2022-11-20T11:24:53;3.30;99.90
21612;DHT22;47005;52.292;13.452;2022-11-20T11:27:19;3.30;99.90
21612;DHT22;47005;52.292;13.452;2022-11-20T11:29:47;3.30;99.90
21612;DHT22;47005;52.292;13.452;2022-11-20T11:32:20;3.30;99.90
21612;DHT22;47005;52.292;13.452;2022-11-20T11:35:02;3.30;99.90
21612;DHT22;47005;52.292;13.452;2022-11-20T11:37:34;3.30;99.90
21612;DHT22;47005;52.292;13.452;2022-11-20T11:40:02;3.30;99.90
21612;DHT22;47005;52.292;13.452;2022-11-20T11:42:28;3.40;99.90
21612;DHT22;47005;52.292;13.452;2022-11-20T11:44:58;3.40;99.90
21612;DHT22;47005;52.292;13.452;2022-11-20T11:50:15;3.40;99.90
21612;DHT22;47005;52.292;13.452;2022-11-20T12:00:40;3.60;99.90
21612;DHT22;47005;52.292;13.452;2022-11-20T12:05:47;3.70;99.90
21612;DHT22;47005;52.292;13.452;2022-11-20T12:08:31;3.70;99.90
21612;DHT22;47005;52.292;13.452;2022-11-20T12:13:48;3.70;99.90
21612;DHT22;47005;52.292;13.452;2022-11-20T12:16:16;3.70;99.90
21612;DHT22;47005;52.292;13.452;2022-11-20T12:18:43;3.80;99.90
21612;DHT22;47005;52.292;13.452;2022-11-20T12:29:37;3.80;99.90
21612;DHT22;47005;52.292;13.452;2022-11-20T12:37:37;3.80;99.90
21612;DHT22;47005;52.292;13.452;2022-11-20T12:46:46;3.80;99.90
21612;DHT22;47005;52.292;13.452;2022-11-20T12:49:47;3.80;99.90
21612;DHT22;47005;52.292;13.452;2022-11-20T12:52:34;3.80;99.90
21612;DHT22;47005;52.292;13.452;2022-11-20T13:00:22;3.80;99.90
21612;DHT22;47005;52.292;13.452;2022-11-20T13:08:22;3.80;99.90
21612;DHT22;47005;52.292;13.452;2022-11-20T13:18:37;3.80;99.90
21612;DHT22;47005;52.292;13.452;2022-11-20T13:24:19;3.80;99.90
21612;DHT22;47005;52.292;13.452;2022-11-20T13:26:46;3.80;99.90
21612;DHT22;47005;52.292;13.452;2022-11-20T13:31:45;3.80;99.90
21612;DHT22;47005;52.292;13.452;2022-11-20T13:34:25;3.80;99.90
21612;DHT22;47005;52.292;13.452;2022-11-20T13:36:53;3.80;99.90
21612;DHT22;47005;52.292;13.452;2022-11-20T13:42:20;3.80;99.90
21612;DHT22;47005;52.292;13.452;2022-11-20T13:44:47;3.80;99.90
21612;DHT22;47005;52.292;13.452;2022-11-20T13:47:27;3.80;99.90
21612;DHT22;47005;52.292;13.452;2022-11-20T13:49:57;3.80;99.90
21612;DHT22;47005;52.292;13.452;2022-11-20T13:52:37;3.90;99.90
21612;DHT22;47005;52.292;13.452;2022-11-20T13:55:08;3.90;99.90
21612;DHT22;47005;52.292;13.452;2022-11-20T13:57:51;3.90;99.90
21612;DHT22;47005;52.292;13.452;2022-11-20T14:00:22;3.90;99.90
21612;DHT22;47005;52.292;13.452;2022-11-20T14:03:18;3.90;99.90
21612;DHT22;47005;52.292;13.452;2022-11-20T14:05:53;3.90;99.90
21612;DHT22;47005;52.292;13.452;2022-11-20T14:11:21;3.80;99.90
21612;DHT22;47005;52.292;13.452;2022-11-20T14:14:15;3.80;99.90
21612;DHT22;47005;52.292;13.452;2022-11-20T14:16:41;3.80;99.90
21612;DHT22;47005;52.292;13.452;2022-11-20T14:21:48;3.80;99.90
21612;DHT22;47005;52.292;13.452;2022-11-20T14:24:19;3.80;99.90
21612;DHT22;47005;52.292;13.452;2022-11-20T14:26:46;3.90;99.90
21612;DHT22;47005;52.292;13.452;2022-11-20T14:29:17;3.90;99.90
21612;DHT22;47005;52.292;13.452;2022-11-20T14:31:44;3.90;99.90
21612;DHT22;47005;52.292;13.452;2022-11-20T14:34:16;3.80;99.90
21612;DHT22;47005;52.292;13.452;2022-11-20T14:36:43;3.80;99.90
21612;DHT22;47005;52.292;13.452;2022-11-20T14:39:12;3.80;99.90
21612;DHT22;47005;52.292;13.452;2022-11-20T14:41:38;3.80;99.90
21612;DHT22;47005;52.292;13.452;2022-11-20T14:44:04;3.80;99.90
21612;DHT22;47005;52.292;13.452;2022-11-20T14:46:31;3.90;99.90
21612;DHT22;47005;52.292;13.452;2022-11-20T14:49:00;3.80;99.90
21612;DHT22;47005;52.292;13.452;2022-11-20T14:51:31;3.80;99.90
21612;DHT22;47005;52.292;13.452;2022-11-20T14:54:08;3.90;99.90
21612;DHT22;47005;52.292;13.452;2022-11-20T14:56:34;3.80;99.90
21612;DHT22;47005;52.292;13.452;2022-11-20T14:59:00;3.90;99.90
21612;DHT22;47005;52.292;13.452;2022-11-20T15:01:27;3.80;99.90
21612;DHT22;47005;52.292;13.452;2022-11-20T15:04:08;3.80;99.90
21612;DHT22;47005;52.292;13.452;2022-11-20T15:06:35;3.80;99.90
21612;DHT22;47005;52.292;13.452;2022-11-20T15:09:03;3.80;99.90
21612;DHT22;47005;52.292;13.452;2022-11-20T15:11:34;3.90;99.90
21612;DHT22;47005;52.292;13.452;2022-11-20T15:14:05;3.80;99.90
21612;DHT22;47005;52.292;13.452;2022-11-20T15:16:32;3.80;99.90
21612;DHT22;47005;52.292;13.452;2022-11-20T15:18:58;3.90;99.90
21612;DHT22;47005;52.292;13.452;2022-11-20T15:21:23;3.80;99.90
21612;DHT22;47005;52.292;13.452;2022-11-20T15:23:50;3.80;99.90
21612;DHT22;47005;52.292;13.452;2022-11-20T15:26:26;3.80;99.90
21612;DHT22;47005;52.292;13.452;2022-11-20T15:28:53;3.80;99.90
21612;DHT22;47005;52.292;13.452;2022-11-20T15:31:21;3.80;99.90
21612;DHT22;47005;52.292;13.452;2022-11-20T15:33:47;3.80;99.90
21612;DHT22;47005;52.292;13.452;2022-11-20T15:36:13;3.80;99.90
21612;DHT22;47005;52.292;13.452;2022-11-20T15:38:39;3.80;99.90
21612;DHT22;47005;52.292;13.452;2022-11-20T15:41:05;3.80;99.90
21612;DHT22;47005;52.292;13.452;2022-11-20T15:43:31;3.80;99.90
21612;DHT22;47005;52.292;13.452;2022-11-20T15:46:00;3.80;99.90
21612;DHT22;47005;52.292;13.452;2022-11-20T15:48:29;3.80;99.90
21612;DHT22;47005;52.292;13.452;2022-11-20T15:53:38;3.80;99.90
21612;DHT22;47005;52.292;13.452;2022-11-20T15:56:04;3.80;99.90
21612;DHT22;47005;52.292;13.452;2022-11-20T15:58:30;3.80;99.90
21612;DHT22;47005;52.292;13.452;2022-11-20T16:00:55;3.80;99.90
21612;DHT22;47005;52.292;13.452;2022-11-20T16:03:22;3.80;99.90
21612;DHT22;47005;52.292;13.452;2022-11-20T16:05:47;3.80;99.90
21612;DHT22;47005;52.292;13.452;2022-11-20T16:08:13;3.80;99.90
21612;DHT22;47005;52.292;13.452;2022-11-20T16:10:39;3.80;99.90
21612;DHT22;47005;52.292;13.452;2022-11-20T16:13:14;3.90;99.90
21612;DHT22;47005;52.292;13.452;2022-11-20T16:16:01;3.90;99.90
21612;DHT22;47005;52.292;13.452;2022-11-20T16:18:27;3.90;99.90
21612;DHT22;47005;52.292;13.452;2022-11-20T16:20:54;3.80;99.90
21612;DHT22;47005;52.292;13.452;2022-11-20T16:23:20;3.90;99.90
21612;DHT22;47005;52.292;13.452;2022-11-20T16:25:46;3.90;99.90
21612;DHT22;47005;52.292;13.452;2022-11-20T16:28:12;3.90;99.90
21612;DHT22;47005;52.292;13.452;2022-11-20T16:30:38;3.80;99.90
21612;DHT22;47005;52.292;13.452;2022-11-20T16:33:04;3.90;99.90
21612;DHT22;47005;52.292;13.452;2022-11-20T16:35:30;3.90;99.90
21612;DHT22;47005;52.292;13.452;2022-11-20T16:37:57;3.90;99.90
21612;DHT22;47005;52.292;13.452;2022-11-20T16:40:24;3.90;99.90
21612;DHT22;47005;52.292;13.452;2022-11-20T16:42:50;3.90;99.90
21612;DHT22;47005;52.292;13.452;2022-11-20T16:45:16;3.90;99.90
21612;DHT22;47005;52.292;13.452;2022-11-20T16:47:42;3.90;99.90
21612;DHT22;47005;52.292;13.452;2022-11-20T16:50:08;4.00;99.90
21612;DHT22;47005;52.292;13.452;2022-11-20T16:52:33;3.90;99.90
21612;DHT22;47005;52.292;13.452;2022-11-20T16:54:59;3.90;99.90
21612;DHT22;47005;52.292;13.452;2022-11-20T16:57:28;4.00;99.90
21612;DHT22;47005;52.292;13.452;2022-11-20T16:59:54;3.90;99.90
21612;DHT22;47005;52.292;13.452;2022-11-20T17:02:20;3.90;99.90
21612;DHT22;47005;52.292;13.452;2022-11-20T17:04:46;4.00;99.90
21612;DHT22;47005;52.292;13.452;2022-11-20T17:07:11;4.00;99.90
21612;DHT22;47005;52.292;13.452;2022-11-20T17:09:37;4.00;99.90
21612;DHT22;47005;52.292;13.452;2022-11-20T17:12:03;4.00;99.90
21612;DHT22;47005;52.292;13.452;2022-11-20T17:14:29;4.00;99.90
21612;DHT22;47005;52.292;13.452;2022-11-20T17:16:55;4.00;99.90
21612;DHT22;47005;52.292;13.452;2022-11-20T17:19:20;4.00;99.90
21612;DHT22;47005;52.292;13.452;2022-11-20T17:21:46;4.00;99.90
21612;DHT22;47005;52.292;13.452;2022-11-20T17:24:12;4.00;99.90
21612;DHT22;47005;52.292;13.452;2022-11-20T17:26:41;3.90;99.90
21612;DHT22;47005;52.292;13.452;2022-11-20T17:29:12;3.90;99.90
21612;DHT22;47005;52.292;13.452;2022-11-20T17:31:38;3.90;99.90
21612;DHT22;47005;52.292;13.452;2022-11-20T17:34:05;4.00;99.90
21612;DHT22;47005;52.292;13.452;2022-11-20T17:36:32;4.00;99.90
21612;DHT22;47005;52.292;13.452;2022-11-20T17:38:58;4.00;99.90
21612;DHT22;47005;52.292;13.452;2022-11-20T17:41:26;3.90;99.90